29IN weather

Homestead Airport
Columbia City, Indiana, United States

Public forecast

Using degrees Fahrenheit for public forecast. Weather courtesy of forecast.io.

METAR (pilot weather report)

Closest report is Fort Wayne International Airport, 10.4 nm (19.3 km) SE. Retrieved 2019/04/19 15:54 UTC (41 minutes ago):

KFWA 191554Z 36015KT 10SM OVC013 07/06 A2969 RMK AO2 DZE48 SLP057 P0000 T00720056

TAF (pilot weather forecast)

Closest forecast is Fort Wayne International Airport, 10.4 nm (19.3 km) SE. Retrieved 2019/04/19 12:28 UTC (4 hours ago):

TAF KFWA 191126Z 1912/2012 01012KT P6SM -SHRA OVC015 FM191500 01016G24KT P6SM -SHRA OVC015 FM200400 02016G25KT 4SM RA BR OVC010 WS020/04050KT